Time;durP1;ratioP1;P1;durP2;ratioP2;P2;SDS_P1;SDS_P2;PMS_P1;PMS_P2;Temp;Humidity;BMP_temperature;BMP_pressure;BME280_temperature;BME280_humidity;BME280_pressure;Samples;Min_cycle;Max_cycle;Signal;HPM_P1;HPM_P2
2022/12/01 00:02:22;;;;;;;;;19.20;16.40;;;;;6.98;84.31;100790.97;5096189;28;8828;-59
2022/12/01 00:04:50;;;;;;;;;18.60;17.60;;;;;6.99;84.40;100787.38;5096538;28;8815;-59
2022/12/01 00:07:18;;;;;;;;;18.20;15.20;;;;;7.01;84.28;100780.22;5096277;28;9534;-59
2022/12/01 00:12:32;;;;;;;;;13.60;12.80;;;;;7.03;84.91;100783.63;5096634;28;8836;-59
2022/12/01 00:15:00;;;;;;;;;9.40;8.20;;;;;7.00;84.28;100775.88;5096001;28;8832;-59
2022/12/01 00:17:29;;;;;;;;;5.60;3.80;;;;;7.01;84.50;100777.56;5095260;28;8850;-59
2022/12/01 00:19:56;;;;;;;;;15.20;14.80;;;;;7.02;84.93;100779.28;5095489;28;8831;-58
2022/12/01 00:22:24;;;;;;;;;14.60;11.00;;;;;7.03;83.92;100778.34;5094216;28;8836;-59
2022/12/01 00:24:54;;;;;;;;;10.80;9.60;;;;;7.04;84.33;100780.06;5094867;28;8827;-59
2022/12/01 00:27:22;;;;;;;;;13.00;12.00;;;;;7.03;84.16;100779.22;5094939;28;8811;-59
2022/12/01 00:29:50;;;;;;;;;13.40;11.20;;;;;7.02;84.54;100781.94;5095417;28;9279;-59
2022/12/01 00:32:18;;;;;;;;;15.80;14.60;;;;;7.01;84.53;100772.28;5095151;28;8847;-59
2022/12/01 00:34:45;;;;;;;;;17.20;15.60;;;;;7.01;84.20;100777.56;5095376;28;8865;-59
2022/12/01 00:37:13;;;;;;;;;11.80;10.80;;;;;7.02;84.74;100779.28;5096056;28;8831;-59
2022/12/01 00:39:41;;;;;;;;;13.60;10.40;;;;;7.04;84.26;100766.84;5096138;28;8850;-59
2022/12/01 00:42:09;;;;;;;;;6.80;6.00;;;;;7.04;84.59;100774.78;5095393;28;8889;-59
2022/12/01 00:44:39;;;;;;;;;13.00;12.60;;;;;7.05;84.15;100779.97;5095798;28;8816;-59
2022/12/01 00:47:07;;;;;;;;;17.60;16.00;;;;;7.05;84.86;100776.50;5095787;28;8827;-59
2022/12/01 00:49:36;;;;;;;;;15.80;13.80;;;;;7.06;84.38;100780.84;5095273;28;8870;-59
2022/12/01 00:52:04;;;;;;;;;12.60;12.00;;;;;7.06;84.67;100780.84;5095773;28;8832;-59
2022/12/01 00:54:32;;;;;;;;;7.80;7.80;;;;;7.06;84.33;100778.19;5095677;28;8839;-59
2022/12/01 00:56:59;;;;;;;;;14.60;12.60;;;;;7.04;84.27;100783.56;5095749;28;8835;-59
2022/12/01 00:59:27;;;;;;;;;11.20;10.60;;;;;7.04;84.48;100788.84;5095792;28;8921;-59
2022/12/01 01:01:55;;;;;;;;;13.00;12.00;;;;;7.02;84.42;100784.56;5095648;28;9536;-59
2022/12/01 01:04:23;;;;;;;;;16.80;15.40;;;;;7.01;84.37;100788.16;5095677;28;8827;-58
2022/12/01 01:06:51;;;;;;;;;17.40;16.60;;;;;7.00;84.62;100789.09;5095652;28;8897;-59
2022/12/01 01:09:19;;;;;;;;;15.20;15.00;;;;;7.00;84.67;100791.75;5095500;28;8836;-59
2022/12/01 01:11:47;;;;;;;;;12.40;12.40;;;;;7.01;84.50;100798.75;5095875;28;9486;-59
2022/12/01 01:14:16;;;;;;;;;15.80;15.20;;;;;7.01;84.21;100794.31;5095473;28;9481;-59
2022/12/01 01:16:44;;;;;;;;;13.00;12.00;;;;;7.03;84.49;100796.88;5096051;28;8846;-59
2022/12/01 01:19:11;;;;;;;;;17.20;15.00;;;;;7.05;84.59;100798.50;5095329;28;8816;-59
2022/12/01 01:21:39;;;;;;;;;14.00;12.00;;;;;7.07;84.22;100801.09;5095633;28;8874;-59
2022/12/01 01:24:07;;;;;;;;;17.00;14.80;;;;;7.05;84.30;100806.44;5095782;28;8824;-59
2022/12/01 01:26:36;;;;;;;;;16.00;16.00;;;;;7.05;84.25;100808.25;5095378;28;8827;-59
2022/12/01 01:29:04;;;;;;;;;12.00;10.40;;;;;7.03;84.58;100805.69;5099581;28;8812;-59
2022/12/01 01:31:32;;;;;;;;;21.00;17.40;;;;;7.02;84.48;100811.03;5099644;28;8819;-59
2022/12/01 01:34:00;;;;;;;;;16.80;15.80;;;;;7.00;84.61;100808.50;5099827;28;8832;-59
2022/12/01 01:36:28;;;;;;;;;19.60;15.80;;;;;6.97;85.05;100810.44;5099514;28;8816;-59
2022/12/01 01:38:57;;;;;;;;;20.00;14.60;;;;;6.96;84.85;100817.53;5099812;28;8827;-59
2022/12/01 01:41:25;;;;;;;;;15.00;15.00;;;;;6.94;84.59;100811.47;5099220;28;8840;-59
2022/12/01 01:43:52;;;;;;;;;16.20;13.40;;;;;6.95;84.59;100820.25;5099020;28;8828;-59
2022/12/01 01:46:20;;;;;;;;;12.80;12.00;;;;;6.94;84.49;100818.53;5099491;28;9516;-59
2022/12/01 01:48:47;;;;;;;;;16.00;11.40;;;;;6.96;84.55;100814.03;5098622;28;8819;-59
2022/12/01 01:51:15;;;;;;;;;17.00;15.80;;;;;6.95;84.62;100809.66;5098351;28;8852;-59
2022/12/01 01:53:43;;;;;;;;;10.40;10.40;;;;;6.94;84.60;100811.47;5097983;28;8811;-58
2022/12/01 01:56:11;;;;;;;;;17.80;14.60;;;;;6.92;84.66;100813.34;5098117;28;8820;-59
2022/12/01 01:58:38;;;;;;;;;19.00;16.40;;;;;6.90;84.25;100820.47;5098318;28;8827;-59
2022/12/01 02:01:06;;;;;;;;;16.00;16.00;;;;;6.90;84.72;100819.63;5097902;28;8832;-59
2022/12/01 02:03:35;;;;;;;;;14.00;11.80;;;;;6.91;84.40;100813.41;5098272;28;8840;-59
2022/12/01 02:06:03;;;;;;;;;18.60;15.00;;;;;6.90;84.45;100812.53;5098954;28;8845;-59
2022/12/01 02:08:31;;;;;;;;;14.20;12.80;;;;;6.91;84.72;100819.53;5098886;28;8824;-59
2022/12/01 02:10:59;;;;;;;;;21.40;19.40;;;;;6.89;85.06;100813.47;5098886;28;8824;-59
2022/12/01 02:13:26;;;;;;;;;15.60;15.20;;;;;6.91;84.51;100819.53;5098924;28;8824;-59
2022/12/01 02:15:54;;;;;;;;;11.20;9.60;;;;;6.91;84.95;100808.09;5098309;28;8835;-59
2022/12/01 02:18:22;;;;;;;;;16.00;16.00;;;;;6.92;84.65;100808.03;5099000;28;8851;-59
2022/12/01 02:20:49;;;;;;;;;15.40;11.20;;;;;6.93;84.41;100814.16;5098813;28;8843;-59
2022/12/01 02:23:17;;;;;;;;;21.20;18.80;;;;;6.92;84.31;100823.06;5098880;28;8823;-59
2022/12/01 02:25:45;;;;;;;;;25.40;22.40;;;;;6.92;84.74;100815.13;5098220;28;8830;-59
2022/12/01 02:28:13;;;;;;;;;8.60;6.40;;;;;6.91;84.81;100811.59;5098775;28;8886;-59
2022/12/01 02:30:41;;;;;;;;;5.80;5.80;;;;;6.92;84.83;100813.34;5098902;28;8812;-59
2022/12/01 02:33:08;;;;;;;;;14.80;12.40;;;;;6.92;84.43;100807.16;5098156;28;8831;-59
2022/12/01 02:35:36;;;;;;;;;17.00;14.40;;;;;6.90;84.95;100793.16;5098891;28;9485;-59
2022/12/01 02:38:04;;;;;;;;;20.20;16.80;;;;;6.89;84.71;100802.03;5098433;28;8924;-59
2022/12/01 02:40:31;;;;;;;;;19.20;16.60;;;;;6.88;84.56;100797.66;5097313;28;8820;-59
2022/12/01 02:43:02;;;;;;;;;19.20;16.60;;;;;6.88;84.51;100797.66;5098382;28;8842;-59
2022/12/01 02:45:29;;;;;;;;;15.60;15.00;;;;;6.87;84.85;100801.25;5098230;28;8820;-59
2022/12/01 02:47:57;;;;;;;;;22.20;20.20;;;;;6.87;84.60;100802.13;5098078;28;8832;-59
2022/12/01 02:50:24;;;;;;;;;12.20;7.60;;;;;6.86;84.80;100805.69;5098343;28;8835;-59
2022/12/01 02:52:52;;;;;;;;;13.60;11.40;;;;;6.85;84.61;100801.34;5098015;28;8811;-59
2022/12/01 02:55:20;;;;;;;;;18.80;15.80;;;;;6.87;84.78;100812.69;5098245;28;8835;-59
2022/12/01 02:57:47;;;;;;;;;18.40;17.40;;;;;6.87;84.83;100812.69;5097874;28;8812;-59
2022/12/01 03:00:15;;;;;;;;;14.60;13.00;;;;;6.87;84.89;100814.47;5097859;28;8820;-59
2022/12/01 03:02:43;;;;;;;;;20.60;18.00;;;;;6.87;84.25;100814.47;5098130;28;9454;-59
2022/12/01 03:05:12;;;;;;;;;19.40;17.20;;;;;6.88;84.81;100809.13;5097903;28;8831;-59
2022/12/01 03:07:40;;;;;;;;;10.00;9.20;;;;;6.89;84.79;100810.00;5097950;28;9477;-59
2022/12/01 03:10:08;;;;;;;;;15.60;15.60;;;;;6.88;84.64;100811.75;5097996;28;8850;-59
2022/12/01 03:12:35;;;;;;;;;16.80;16.40;;;;;6.89;85.10;100810.00;5097759;28;8828;-59
2022/12/01 03:15:03;;;;;;;;;16.00;13.80;;;;;6.89;84.51;100812.63;5097286;28;8909;-59
2022/12/01 03:17:31;;;;;;;;;18.60;16.40;;;;;6.89;84.92;100804.69;5097549;28;8835;-59
2022/12/01 03:19:59;;;;;;;;;15.80;14.60;;;;;6.87;84.77;100812.69;5096292;28;8847;-59
2022/12/01 03:22:27;;;;;;;;;19.00;14.80;;;;;6.86;84.71;100810.13;5096392;28;8860;-59
2022/12/01 03:24:54;;;;;;;;;16.80;16.00;;;;;6.85;84.94;100813.72;5097199;28;8836;-59
2022/12/01 03:27:22;;;;;;;;;12.20;11.40;;;;;6.84;84.74;100812.84;5097464;28;8850;-59
2022/12/01 03:29:51;;;;;;;;;9.00;8.60;;;;;6.86;84.95;100812.78;5097505;28;9493;-59
2022/12/01 03:32:19;;;;;;;;;16.80;14.60;;;;;6.85;84.83;100819.00;5097329;28;9489;-58
2022/12/01 03:34:48;;;;;;;;;16.80;12.80;;;;;6.86;84.80;100810.13;5097033;28;9520;-59
2022/12/01 03:37:16;;;;;;;;;14.20;12.40;;;;;6.86;84.60;100811.00;5097165;28;8858;-59
2022/12/01 03:39:44;;;;;;;;;18.40;16.40;;;;;6.85;84.43;100808.41;5097110;28;8820;-59
2022/12/01 03:42:15;;;;;;;;;12.80;11.60;;;;;6.84;84.78;100799.59;5096744;28;8870;-59
2022/12/01 03:44:43;;;;;;;;;16.80;14.60;;;;;6.83;84.80;100805.84;5096538;28;9531;-57
2022/12/01 03:47:10;;;;;;;;;16.20;14.80;;;;;6.81;84.82;100801.56;5097312;28;8831;-59
2022/12/01 03:49:38;;;;;;;;;18.40;16.80;;;;;6.80;84.46;100805.13;5097056;28;8904;-59
2022/12/01 03:52:05;;;;;;;;;16.20;15.00;;;;;6.77;85.00;100806.16;5097070;28;8812;-58
2022/12/01 03:54:34;;;;;;;;;15.80;14.00;;;;;6.75;84.82;100812.47;5097249;28;9498;-59
2022/12/01 03:57:02;;;;;;;;;13.40;12.20;;;;;6.72;84.80;100813.47;5097387;28;8823;-59
2022/12/01 03:59:30;;;;;;;;;8.20;6.20;;;;;6.70;85.12;100810.06;5096889;28;8909;-59
2022/12/01 04:01:58;;;;;;;;;22.00;20.40;;;;;6.72;85.00;100815.25;5096631;28;9524;-59
2022/12/01 04:04:26;;;;;;;;;21.80;20.20;;;;;6.72;84.99;100809.97;5096687;28;8946;-59
2022/12/01 04:06:55;;;;;;;;;21.60;21.40;;;;;6.71;84.46;100811.75;5096214;28;8847;-58
2022/12/01 04:09:23;;;;;;;;;20.60;18.20;;;;;6.72;84.72;100818.75;5096928;28;8831;-58
2022/12/01 04:14:36;;;;;;;;;15.20;14.80;;;;;6.76;84.76;100814.19;5096073;28;8858;-59
2022/12/01 04:17:05;;;;;;;;;21.20;19.20;;;;;6.76;84.71;100808.88;5095982;28;8823;-59
2022/12/01 04:19:33;;;;;;;;;17.60;15.80;;;;;6.76;84.80;100815.00;5093938;28;8988;-59
2022/12/01 04:22:00;;;;;;;;;23.20;21.80;;;;;6.76;84.86;100809.72;5075909;28;8864;-58
2022/12/01 04:24:28;;;;;;;;;12.20;11.60;;;;;6.77;84.18;100810.59;5075850;28;8845;-59
2022/12/01 04:26:56;;;;;;;;;16.40;13.80;;;;;6.77;84.96;100807.94;5076153;28;8826;-58
2022/12/01 04:29:26;;;;;;;;;19.00;18.60;;;;;6.77;84.75;100810.59;5075808;28;8841;-59
2022/12/01 04:31:54;;;;;;;;;18.40;16.80;;;;;6.76;84.80;100815.00;5075731;28;8845;-57
2022/12/01 04:34:21;;;;;;;;;17.80;15.40;;;;;6.76;84.83;100809.72;5076166;28;9492;-59
2022/12/01 04:36:49;;;;;;;;;17.20;16.00;;;;;6.77;84.76;100810.59;5075812;28;8903;-59
2022/12/01 04:39:16;;;;;;;;;24.60;18.20;;;;;6.76;84.76;100806.25;5075718;28;8914;-59
2022/12/01 04:41:44;;;;;;;;;19.80;18.20;;;;;6.74;84.69;100810.75;5075578;28;8916;-59
2022/12/01 04:44:12;;;;;;;;;22.00;21.20;;;;;6.76;84.71;100819.47;5083860;28;8828;-59
2022/12/01 04:46:40;;;;;;;;;15.00;12.60;;;;;6.75;84.84;100815.13;5096006;28;8932;-58
2022/12/01 04:49:07;;;;;;;;;21.00;16.80;;;;;6.77;84.62;100815.88;5095868;28;8865;-59
2022/12/01 04:51:35;;;;;;;;;16.00;13.00;;;;;6.74;84.58;100808.94;5095912;28;8839;-58
2022/12/01 04:54:04;;;;;;;;;9.00;6.00;;;;;6.72;84.68;100810.81;5095545;28;8850;-58
2022/12/01 04:56:32;;;;;;;;;19.00;14.20;;;;;6.71;84.91;100805.59;5095855;28;8819;-58
2022/12/01 04:59:00;;;;;;;;;17.20;16.80;;;;;6.67;84.92;100812.00;5095944;28;8820;-58
2022/12/01 05:01:27;;;;;;;;;18.40;16.40;;;;;6.67;84.92;100806.69;5086340;28;8865;-59
2022/12/01 05:03:55;;;;;;;;;16.80;16.00;;;;;6.66;84.94;100811.13;5075400;28;8887;-58
2022/12/01 05:06:23;;;;;;;;;17.00;15.00;;;;;6.65;84.79;100814.72;5077026;28;8813;-58
2022/12/01 05:08:53;;;;;;;;;18.60;14.60;;;;;6.64;84.86;100814.78;5078322;28;8818;-59
2022/12/01 05:11:21;;;;;;;;;12.40;10.40;;;;;6.62;85.16;100817.53;5077919;28;8865;-58
2022/12/01 05:13:48;;;;;;;;;15.80;14.20;;;;;6.63;85.11;100818.34;5080909;28;8848;-59
2022/12/01 05:16:16;;;;;;;;;13.00;10.80;;;;;6.61;84.69;100817.59;5095590;28;8823;-57
2022/12/01 05:18:46;;;;;;;;;15.80;13.00;;;;;6.61;84.99;100817.59;5095753;28;8815;-57
2022/12/01 05:21:13;;;;;;;;;19.40;15.00;;;;;6.60;84.81;100818.53;5095632;28;9501;-59
2022/12/01 05:23:41;;;;;;;;;18.00;16.80;;;;;6.59;85.04;100815.00;5095343;28;8921;-59
2022/12/01 05:26:08;;;;;;;;;20.60;19.60;;;;;6.58;85.06;100820.38;5088768;28;8826;-59
2022/12/01 05:28:36;;;;;;;;;17.80;16.20;;;;;6.59;85.11;100816.81;5074906;28;8810;-58
2022/12/01 05:31:10;;;;;;;;;17.20;15.00;;;;;6.61;85.14;100815.78;5075298;28;8829;-59
2022/12/01 05:33:38;;;;;;;;;14.60;13.00;;;;;6.65;85.19;100816.47;5075263;28;8971;-58
2022/12/01 05:36:06;;;;;;;;;14.20;14.20;;;;;6.66;85.02;100824.34;5075071;28;8842;-58
2022/12/01 05:38:33;;;;;;;;;15.60;14.00;;;;;6.65;84.82;100819.13;5074814;28;8823;-56
2022/12/01 05:41:01;;;;;;;;;9.20;9.20;;;;;6.65;84.87;100820.00;5074859;28;8899;-59
2022/12/01 05:43:28;;;;;;;;;19.20;16.00;;;;;6.66;84.80;100818.22;5076481;28;8867;-58
2022/12/01 05:45:56;;;;;;;;;19.20;14.20;;;;;6.65;84.83;100816.47;5094997;28;8847;-58
2022/12/01 05:48:24;;;;;;;;;7.80;5.20;;;;;6.66;85.02;100823.53;5095044;28;8827;-58
2022/12/01 05:50:52;;;;;;;;;10.40;9.60;;;;;6.66;84.79;100823.53;5095373;28;8909;-58
2022/12/01 05:53:20;;;;;;;;;14.20;13.00;;;;;6.67;84.96;100825.22;5095138;28;8820;-56
2022/12/01 05:55:50;;;;;;;;;11.80;10.40;;;;;6.67;84.79;100820.78;5094639;28;8823;-57
2022/12/01 05:58:18;;;;;;;;;17.00;13.00;;;;;6.68;84.79;100827.78;5085567;28;8802;-56
2022/12/01 06:00:46;;;;;;;;;18.60;17.20;;;;;6.67;84.85;100822.59;5074268;28;8837;-57
2022/12/01 06:03:14;;;;;;;;;13.00;11.00;;;;;6.68;85.05;100826.94;5074032;28;8845;-56
2022/12/01 06:05:41;;;;;;;;;12.40;11.60;;;;;6.68;85.09;100826.94;5074175;28;8825;-59
2022/12/01 06:08:10;;;;;;;;;15.20;11.20;;;;;6.69;84.57;100829.47;5074488;28;8840;-58
2022/12/01 06:10:38;;;;;;;;;18.20;16.00;;;;;6.70;85.03;100833.88;5074364;28;8821;-59
2022/12/01 06:13:05;;;;;;;;;12.80;9.60;;;;;6.69;84.96;100824.19;5072977;28;8879;-57
2022/12/01 06:15:33;;;;;;;;;12.00;11.60;;;;;6.69;84.87;100833.94;5094941;28;8851;-56
2022/12/01 06:18:01;;;;;;;;;8.40;8.20;;;;;6.68;84.90;100827.78;5098039;28;8839;-59
2022/12/01 06:20:29;;;;;;;;;9.00;7.40;;;;;6.66;85.20;100834.94;5097943;28;8836;-58
2022/12/01 06:22:58;;;;;;;;;18.00;16.20;;;;;6.63;84.60;100828.94;5096708;28;8836;-58
2022/12/01 06:25:26;;;;;;;;;14.20;13.80;;;;;6.60;85.01;100829.09;5096724;28;8823;-58
2022/12/01 06:27:53;;;;;;;;;14.00;11.60;;;;;6.57;84.99;100839.81;5096982;28;8836;-59
2022/12/01 06:30:21;;;;;;;;;13.40;13.20;;;;;6.55;85.09;100833.75;5096893;28;8820;-58
2022/12/01 06:32:49;;;;;;;;;13.00;12.00;;;;;6.55;84.57;100837.28;5096683;28;8820;-57
2022/12/01 06:35:17;;;;;;;;;11.80;10.40;;;;;6.55;84.84;100841.69;5096251;28;9205;-57
2022/12/01 06:37:45;;;;;;;;;12.60;10.40;;;;;6.53;85.20;100835.63;5096052;28;8832;-58
2022/12/01 06:40:12;;;;;;;;;16.00;12.60;;;;;6.53;85.59;100838.28;5096152;28;8828;-59
2022/12/01 06:42:40;;;;;;;;;10.00;10.00;;;;;6.51;84.95;100829.56;5095509;28;8869;-59
2022/12/01 06:45:09;;;;;;;;;11.60;10.80;;;;;6.48;84.96;100840.28;5095851;28;8847;-59
2022/12/01 06:47:37;;;;;;;;;12.20;9.20;;;;;6.48;85.64;100840.28;5093911;28;8840;-58
2022/12/01 06:50:07;;;;;;;;;10.00;9.00;;;;;6.48;85.20;100842.91;5092621;28;8843;-59
2022/12/01 06:52:35;;;;;;;;;13.00;12.40;;;;;6.48;85.23;100842.91;5092475;28;9509;-59
2022/12/01 06:55:03;;;;;;;;;11.40;8.60;;;;;6.49;84.82;100849.91;5092268;28;8832;-58
2022/12/01 06:57:34;;;;;;;;;9.40;9.20;;;;;6.49;85.16;100852.56;5092491;28;8840;-58
2022/12/01 07:00:03;;;;;;;;;14.60;12.00;;;;;6.50;85.30;100848.97;5092971;28;8828;-59
2022/12/01 07:02:31;;;;;;;;;7.40;7.40;;;;;6.51;84.77;100858.66;5094037;28;8851;-59
2022/12/01 07:04:59;;;;;;;;;12.60;10.00;;;;;6.50;85.39;100855.16;5094487;28;8882;-56
2022/12/01 07:07:27;;;;;;;;;10.00;9.40;;;;;6.49;84.73;100865.78;5094752;28;8828;-59
2022/12/01 07:09:55;;;;;;;;;14.60;12.20;;;;;6.49;85.15;100864.03;5094741;28;8834;-59
2022/12/01 07:12:22;;;;;;;;;2.60;2.60;;;;;6.47;85.00;100859.72;5094803;28;8834;-59
2022/12/01 07:14:50;;;;;;;;;12.20;11.60;;;;;6.45;85.27;100859.78;5092928;28;8860;-59
2022/12/01 07:17:18;;;;;;;;;9.20;7.00;;;;;6.43;84.82;100863.44;5093319;28;8827;-58
2022/12/01 07:19:46;;;;;;;;;14.40;12.60;;;;;6.41;85.23;100871.47;5093042;28;9602;-59
2022/12/01 07:22:16;;;;;;;;;13.80;12.80;;;;;6.41;85.61;100870.59;5092933;28;8842;-57
2022/12/01 07:24:44;;;;;;;;;9.60;7.40;;;;;6.38;84.95;100871.59;5092686;28;8827;-59
2022/12/01 07:27:12;;;;;;;;;13.80;12.80;;;;;6.38;85.18;100881.34;5092580;28;8911;-57
2022/12/01 07:29:40;;;;;;;;;15.60;15.20;;;;;6.38;85.03;100876.06;5091838;28;8820;-58
2022/12/01 07:32:08;;;;;;;;;11.40;10.20;;;;;6.37;85.23;100874.34;5091547;28;8819;-59
2022/12/01 07:34:36;;;;;;;;;12.60;12.60;;;;;6.36;85.09;100877.91;5091319;28;8827;-58
2022/12/01 07:37:05;;;;;;;;;12.80;10.20;;;;;6.35;85.65;100868.25;5091986;28;8961;-59
2022/12/01 07:39:32;;;;;;;;;18.60;15.80;;;;;6.37;85.32;100874.34;5091742;28;9387;-59
2022/12/01 07:42:00;;;;;;;;;20.40;18.40;;;;;6.38;85.33;100878.69;5093610;28;8831;-59
2022/12/01 07:44:28;;;;;;;;;17.60;16.40;;;;;6.37;85.13;100880.47;5093551;28;8874;-59
2022/12/01 07:46:57;;;;;;;;;8.60;6.80;;;;;6.37;85.92;100877.81;5093773;28;8816;-59
2022/12/01 07:49:25;;;;;;;;;15.20;12.80;;;;;6.39;85.38;100880.41;5094523;28;8836;-59
2022/12/01 07:51:53;;;;;;;;;15.60;11.60;;;;;6.38;85.21;100876.06;5094429;28;8831;-59
2022/12/01 07:54:21;;;;;;;;;13.00;12.20;;;;;6.40;85.42;100884.75;5092582;28;8835;-59
2022/12/01 07:56:49;;;;;;;;;16.80;15.40;;;;;6.37;85.40;100879.63;5092400;28;8833;-58
2022/12/01 07:59:16;;;;;;;;;19.80;16.40;;;;;6.34;85.38;100877.09;5091578;28;8846;-59
2022/12/01 08:01:45;;;;;;;;;16.40;14.00;;;;;6.34;86.01;100883.28;5092540;28;8836;-58
2022/12/01 08:04:13;;;;;;;;;19.00;15.80;;;;;6.33;85.25;100881.56;5092791;28;8828;-59
2022/12/01 08:06:41;;;;;;;;;17.80;15.60;;;;;6.34;85.65;100891.19;5092794;28;8831;-58
2022/12/01 08:09:08;;;;;;;;;16.40;15.20;;;;;6.32;85.50;100894.84;5093784;28;8850;-59
2022/12/01 08:11:36;;;;;;;;;26.60;22.60;;;;;6.33;85.75;100888.63;5093156;28;8979;-58
2022/12/01 08:14:04;;;;;;;;;20.40;16.40;;;;;6.34;85.18;100887.69;5094402;28;8800;-57
2022/12/01 08:16:32;;;;;;;;;23.60;21.00;;;;;6.37;85.49;100891.03;5094739;28;8920;-59
2022/12/01 08:19:00;;;;;;;;;26.60;20.80;;;;;6.38;85.77;100891.91;5094751;28;8855;-58
2022/12/01 08:21:27;;;;;;;;;22.80;20.40;;;;;6.38;85.24;100897.22;5095016;28;8827;-57
2022/12/01 08:23:56;;;;;;;;;31.00;27.40;;;;;6.40;85.37;100905.91;5093300;28;8854;-59
2022/12/01 08:26:25;;;;;;;;;20.60;18.60;;;;;6.38;85.51;100903.34;5093454;28;8827;-57
2022/12/01 08:28:52;;;;;;;;;21.40;16.20;;;;;6.41;85.23;100907.63;5094443;28;8942;-58
2022/12/01 08:31:20;;;;;;;;;19.80;18.60;;;;;6.41;85.34;100910.28;5094351;28;8843;-56
2022/12/01 08:33:49;;;;;;;;;18.60;16.40;;;;;6.43;85.10;100911.06;5094624;28;8909;-56
2022/12/01 08:36:18;;;;;;;;;19.00;17.80;;;;;6.44;85.34;100912.78;5094397;28;8832;-58
2022/12/01 08:38:46;;;;;;;;;16.20;15.60;;;;;6.46;85.67;100916.22;5094215;28;8834;-57
2022/12/01 08:41:13;;;;;;;;;17.00;15.20;;;;;6.47;85.72;100907.34;5094232;28;8859;-58
2022/12/01 08:43:43;;;;;;;;;18.20;15.40;;;;;6.48;85.20;100914.34;5094212;28;8844;-57
2022/12/01 08:46:28;;;;;;;;;19.80;13.00;;;;;6.50;85.69;100917.78;5093432;28;8835;-58
2022/12/01 08:48:56;;;;;;;;;16.80;15.80;;;;;6.51;85.24;100908.94;5093249;28;8832;-59
2022/12/01 08:51:24;;;;;;;;;29.20;27.00;;;;;6.52;85.22;100903.53;5092383;28;8842;-58
2022/12/01 08:53:52;;;;;;;;;22.80;20.40;;;;;6.57;85.18;100908.63;5092603;28;8962;-58
2022/12/01 08:56:20;;;;;;;;;13.00;12.80;;;;;6.59;85.17;100912.06;5092287;28;8846;-58
2022/12/01 08:58:49;;;;;;;;;18.60;14.00;;;;;6.61;85.20;100904.91;5092285;28;8819;-59
2022/12/01 09:01:18;;;;;;;;;22.80;21.20;;;;;6.65;84.99;100909.09;5092832;28;8881;-59
2022/12/01 09:03:46;;;;;;;;;21.40;19.20;;;;;6.66;84.89;100914.31;5092545;28;8893;-59
2022/12/01 09:06:14;;;;;;;;;21.60;19.80;;;;;6.65;84.90;100912.63;5092241;28;8832;-59
2022/12/01 09:08:42;;;;;;;;;20.00;16.40;;;;;6.67;85.08;100910.75;5092200;28;9135;-59
2022/12/01 09:11:11;;;;;;;;;23.20;18.80;;;;;6.67;84.89;100916.03;5091199;28;8882;-57
2022/12/01 09:13:39;;;;;;;;;15.20;13.20;;;;;6.66;84.80;100914.31;5092138;28;8862;-59
2022/12/01 09:16:07;;;;;;;;;21.40;17.80;;;;;6.66;84.69;100914.31;5091594;28;8855;-59
2022/12/01 09:18:35;;;;;;;;;21.00;18.20;;;;;6.67;84.45;100912.56;5091799;28;9554;-58
2022/12/01 09:21:03;;;;;;;;;16.20;13.80;;;;;6.68;84.26;100914.25;5092588;28;8828;-59
2022/12/01 09:23:31;;;;;;;;;17.20;14.20;;;;;6.66;84.53;100913.50;5092571;28;9017;-59
2022/12/01 09:25:59;;;;;;;;;16.20;15.00;;;;;6.65;84.71;100915.25;5092887;28;8860;-58
2022/12/01 09:28:27;;;;;;;;;17.80;13.40;;;;;6.64;84.55;100920.63;5092682;28;8816;-58
2022/12/01 09:30:55;;;;;;;;;14.00;11.20;;;;;6.64;84.69;100917.97;5093167;28;9493;-59
2022/12/01 09:33:23;;;;;;;;;23.20;20.40;;;;;6.66;84.50;100921.44;5092613;28;8831;-59
2022/12/01 09:35:51;;;;;;;;;20.80;19.00;;;;;6.68;84.60;100922.19;5093303;28;8851;-59
2022/12/01 09:38:19;;;;;;;;;21.60;19.00;;;;;6.69;84.72;100921.25;5093311;28;8924;-56
2022/12/01 09:40:47;;;;;;;;;25.00;22.80;;;;;6.71;84.74;100916.75;5093076;28;8842;-58
2022/12/01 09:43:15;;;;;;;;;19.40;18.00;;;;;6.76;84.87;100917.41;5091713;28;8895;-58
2022/12/01 09:45:44;;;;;;;;;26.20;16.00;;;;;6.79;85.15;100930.47;5091391;28;8871;-58
2022/12/01 09:48:12;;;;;;;;;19.80;16.00;;;;;6.84;84.90;100928.47;5092271;28;8847;-59
2022/12/01 09:50:41;;;;;;;;;18.60;18.40;;;;;6.86;84.22;100916.00;5095786;28;9792;-58
2022/12/01 09:53:09;;;;;;;;;13.20;12.20;;;;;6.85;84.14;100914.28;5094532;28;8835;-59
2022/12/01 09:55:37;;;;;;;;;27.00;23.60;;;;;6.86;84.39;100922.16;5094746;28;8823;-59
2022/12/01 09:58:05;;;;;;;;;24.00;20.80;;;;;6.87;84.49;100912.41;5094081;28;8847;-59
2022/12/01 10:00:33;;;;;;;;;26.00;23.20;;;;;6.86;84.58;100911.59;5093057;28;8828;-60
2022/12/01 10:03:01;;;;;;;;;22.20;20.00;;;;;6.91;84.25;100906.06;5092761;28;8927;-59
2022/12/01 10:05:29;;;;;;;;;19.20;16.60;;;;;6.98;84.68;100904.81;5093302;28;8843;-58
2022/12/01 10:07:57;;;;;;;;;25.60;23.20;;;;;7.06;84.22;100907.94;5094339;28;8854;-59
2022/12/01 10:10:25;;;;;;;;;25.20;24.60;;;;;7.12;84.01;100897.06;5094370;28;8839;-58
2022/12/01 10:12:53;;;;;;;;;20.40;19.80;;;;;7.17;83.83;100900.31;5093690;28;8828;-59
2022/12/01 10:15:21;;;;;;;;;27.60;25.00;;;;;7.24;83.72;100896.41;5095038;28;8932;-59
2022/12/01 10:17:49;;;;;;;;;21.40;19.80;;;;;7.31;83.73;100890.75;5093721;28;8840;-59
2022/12/01 10:20:17;;;;;;;;;21.40;17.80;;;;;7.36;82.97;100888.69;5093730;28;8858;-59
2022/12/01 10:22:45;;;;;;;;;16.40;13.40;;;;;7.36;83.33;100888.69;5093135;28;8839;-59
2022/12/01 10:25:13;;;;;;;;;9.60;9.60;;;;;7.34;83.44;100887.09;5092807;28;8869;-59
2022/12/01 10:27:41;;;;;;;;;12.80;7.80;;;;;7.33;83.24;100891.50;5094469;28;8839;-59
2022/12/01 10:30:09;;;;;;;;;17.20;14.60;;;;;7.33;83.38;100888.00;5094805;28;8923;-59
2022/12/01 10:32:37;;;;;;;;;25.00;20.20;;;;;7.33;83.29;100890.66;5094703;28;8836;-57
2022/12/01 10:35:05;;;;;;;;;24.20;22.00;;;;;7.31;83.75;100885.44;5094986;28;8835;-59
2022/12/01 10:37:34;;;;;;;;;15.20;14.20;;;;;7.31;82.89;100890.75;5095662;28;8827;-59
2022/12/01 10:40:03;;;;;;;;;30.00;26.20;;;;;7.25;83.33;100888.41;5095574;28;8982;-59
2022/12/01 10:42:31;;;;;;;;;29.40;25.20;;;;;7.23;83.53;100889.41;5095498;28;8871;-59
2022/12/01 10:44:59;;;;;;;;;29.40;26.00;;;;;7.23;83.45;100889.41;5094137;28;8848;-59
2022/12/01 10:47:27;;;;;;;;;20.20;17.40;;;;;7.24;83.72;100885.81;5092995;28;8831;-59
2022/12/01 10:49:56;;;;;;;;;18.20;14.00;;;;;7.24;83.75;100886.69;5093064;28;8828;-58
2022/12/01 10:52:25;;;;;;;;;26.20;23.20;;;;;7.22;83.55;100887.69;5094082;28;8874;-59
2022/12/01 10:54:52;;;;;;;;;9.80;7.00;;;;;7.18;83.51;100883.47;5093702;28;9639;-60
2022/12/01 10:57:21;;;;;;;;;28.60;24.40;;;;;7.18;83.58;100883.47;5092541;28;8919;-59
2022/12/01 10:59:48;;;;;;;;;29.60;24.20;;;;;7.22;83.46;100877.97;5092998;28;8820;-59
2022/12/01 11:02:18;;;;;;;;;23.20;18.80;;;;;7.26;83.49;100873.34;5094027;28;8847;-59
2022/12/01 11:04:47;;;;;;;;;22.00;20.20;;;;;7.31;83.42;100869.56;5093412;28;8851;-59
2022/12/01 11:07:15;;;;;;;;;20.60;20.00;;;;;7.36;83.47;100872.81;5093502;28;9495;-60
2022/12/01 11:09:43;;;;;;;;;30.60;27.80;;;;;7.39;83.26;100874.44;5091600;28;9562;-59
2022/12/01 11:12:11;;;;;;;;;31.00;27.80;;;;;7.39;83.18;100870.00;5093492;28;8863;-59
2022/12/01 11:14:39;;;;;;;;;24.80;21.60;;;;;7.41;82.46;100873.44;5093249;28;8998;-59
2022/12/01 11:17:07;;;;;;;;;22.60;20.00;;;;;7.40;82.95;100873.50;5092478;28;8980;-59
2022/12/01 11:19:35;;;;;;;;;20.60;19.00;;;;;7.36;82.98;100864.84;5091414;28;8974;-59
2022/12/01 11:22:04;;;;;;;;;27.20;23.40;;;;;7.31;82.64;100871.31;5091806;28;8847;-59
2022/12/01 11:24:32;;;;;;;;;28.80;26.80;;;;;7.27;83.34;100870.63;5091822;28;8835;-59
2022/12/01 11:27:02;;;;;;;;;31.20;28.40;;;;;7.27;83.31;100875.94;5092180;28;8824;-59
2022/12/01 11:29:30;;;;;;;;;14.00;12.20;;;;;7.28;82.49;100868.84;5092855;28;8842;-59
2022/12/01 11:31:58;;;;;;;;;31.00;25.00;;;;;7.28;83.02;100879.44;5092589;28;8847;-59
2022/12/01 11:34:27;;;;;;;;;15.80;14.40;;;;;7.29;83.06;100873.22;5092181;28;8917;-59
2022/12/01 11:36:55;;;;;;;;;24.80;19.80;;;;;7.28;83.06;100866.19;5093225;28;8831;-59